Time;durP1;ratioP1;P1;durP2;ratioP2;P2;SDS_P1;SDS_P2;PMS_P1;PMS_P2;Temp;Humidity;BMP_temperature;BMP_pressure;BME280_temperature;BME280_humidity;BME280_pressure;Samples;Min_cycle;Max_cycle;Signal;HPM_P1;HPM_P2
2023/06/04 00:02:05;;;;;;;3.65;3.35;;;21.40;62.00;;;;;;4987145;28;20213;-68
2023/06/04 00:04:31;;;;;;;4.15;3.83;;;21.40;61.90;;;;;;4988329;28;20280;-68
2023/06/04 00:06:57;;;;;;;4.15;3.75;;;21.40;62.00;;;;;;4987002;28;20236;-68
2023/06/04 00:09:23;;;;;;;4.00;3.50;;;21.40;61.90;;;;;;4972132;28;20185;-67
2023/06/04 00:11:48;;;;;;;3.90;3.60;;;21.40;61.90;;;;;;4980170;28;20268;-68
2023/06/04 00:14:15;;;;;;;4.00;3.70;;;21.40;61.90;;;;;;4969107;28;20198;-68
2023/06/04 00:16:40;;;;;;;4.13;3.83;;;21.40;61.80;;;;;;4970675;28;20213;-68
2023/06/04 00:19:06;;;;;;;4.28;3.95;;;21.40;61.90;;;;;;4978708;28;20244;-68
2023/06/04 00:21:32;;;;;;;3.90;3.60;;;21.40;61.80;;;;;;4996244;28;20265;-68
2023/06/04 00:24:00;;;;;;;4.00;3.70;;;21.40;62.00;;;;;;4988073;28;20193;-70
2023/06/04 00:26:26;;;;;;;4.07;3.78;;;21.30;61.70;;;;;;4988244;28;20194;-68
2023/06/04 00:28:51;;;;;;;4.40;4.00;;;21.30;61.70;;;;;;4987671;28;20299;-68
2023/06/04 00:31:17;;;;;;;3.75;3.45;;;21.30;61.70;;;;;;4987955;28;20214;-67
2023/06/04 00:33:43;;;;;;;4.15;3.75;;;21.40;61.70;;;;;;4987790;28;20208;-68
2023/06/04 00:36:09;;;;;;;3.88;3.58;;;21.40;61.70;;;;;;4984792;28;20185;-68
2023/06/04 00:38:35;;;;;;;3.50;3.30;;;21.40;61.80;;;;;;4990225;28;20220;-68
2023/06/04 00:41:00;;;;;;;4.15;3.75;;;21.30;61.50;;;;;;4968864;28;20190;-68
2023/06/04 00:43:27;;;;;;;3.53;3.28;;;21.30;61.70;;;;;;4999619;28;20197;-67
2023/06/04 00:45:53;;;;;;;3.67;3.38;;;21.30;61.60;;;;;;4991637;28;20277;-68
2023/06/04 00:48:21;;;;;;;3.75;3.40;;;21.30;61.60;;;;;;4989370;28;20255;-68
2023/06/04 00:50:48;;;;;;;3.28;3.08;;;21.30;61.60;;;;;;4985005;28;20193;-68
2023/06/04 00:53:14;;;;;;;3.53;3.25;;;21.30;61.50;;;;;;4991536;28;20257;-68
2023/06/04 00:55:41;;;;;;;3.80;3.50;;;21.30;61.50;;;;;;4975683;28;20228;-67
2023/06/04 00:58:09;;;;;;;3.95;3.65;;;21.30;61.60;;;;;;4991723;28;20236;-67
2023/06/04 01:00:36;;;;;;;3.35;3.05;;;21.30;61.50;;;;;;4991304;28;20204;-68
2023/06/04 01:03:17;;;;;;;3.65;3.35;;;21.30;61.60;;;;;;4991005;28;20205;-69
2023/06/04 01:06:12;;;;;;;3.78;3.40;;;21.30;61.50;;;;;;4999248;28;20192;-66
2023/06/04 01:08:42;;;;;;;3.55;3.25;;;21.30;61.50;;;;;;4975653;28;20209;-68
2023/06/04 01:11:08;;;;;;;4.03;3.72;;;21.30;61.40;;;;;;4975141;28;20185;-68
2023/06/04 01:13:34;;;;;;;3.42;3.22;;;21.30;61.50;;;;;;4974836;28;20188;-68
2023/06/04 01:16:00;;;;;;;3.50;3.20;;;21.30;61.40;;;;;;5007381;28;20224;-67
2023/06/04 01:18:29;;;;;;;3.53;3.22;;;21.30;61.40;;;;;;4974934;28;20204;-67
2023/06/04 01:21:03;;;;;;;3.20;2.95;;;21.30;61.50;;;;;;4993475;28;20195;-67
2023/06/04 01:23:46;;;;;;;3.65;3.35;;;21.30;61.40;;;;;;4979488;28;20232;-68
2023/06/04 01:26:13;;;;;;;3.28;2.97;;;21.30;61.40;;;;;;4958819;28;20197;-67
2023/06/04 01:28:39;;;;;;;3.65;3.35;;;21.30;61.30;;;;;;4990638;28;20205;-68
2023/06/04 01:31:08;;;;;;;3.30;3.00;;;21.30;61.50;;;;;;4985889;28;20188;-69
2023/06/04 01:33:35;;;;;;;3.50;3.30;;;21.30;61.40;;;;;;5002614;28;20275;-68
2023/06/04 01:36:02;;;;;;;3.40;3.08;;;21.30;61.40;;;;;;4991213;28;20190;-69
2023/06/04 01:38:28;;;;;;;3.53;3.22;;;21.30;61.40;;;;;;4974490;28;20214;-68
2023/06/04 01:41:00;;;;;;;3.20;2.90;;;21.30;61.30;;;;;;4984360;28;20188;-68
2023/06/04 01:43:28;;;;;;;3.67;3.38;;;21.30;61.30;;;;;;4993668;28;20277;-68
2023/06/04 01:45:54;;;;;;;3.63;3.33;;;21.30;61.30;;;;;;4984603;28;20668;-68
2023/06/04 01:48:20;;;;;;;3.50;3.20;;;21.30;61.40;;;;;;4982487;28;20236;-68
2023/06/04 01:50:46;;;;;;;3.08;2.80;;;21.30;61.30;;;;;;4958689;28;20221;-70
2023/06/04 01:53:11;;;;;;;3.00;2.80;;;21.20;61.10;;;;;;4988285;28;20238;-68
2023/06/04 01:55:37;;;;;;;3.28;3.00;;;21.20;61.10;;;;;;4957965;28;20189;-68
2023/06/04 01:58:03;;;;;;;3.60;3.30;;;21.30;61.30;;;;;;5001483;28;20216;-68
2023/06/04 02:00:29;;;;;;;2.92;2.72;;;21.30;61.40;;;;;;4985540;28;20240;-68
2023/06/04 02:02:55;;;;;;;3.17;2.97;;;21.30;61.30;;;;;;5009609;28;20220;-68
2023/06/04 02:05:22;;;;;;;3.03;2.83;;;21.20;61.10;;;;;;4979777;28;20197;-68
2023/06/04 02:07:47;;;;;;;2.90;2.70;;;21.20;61.00;;;;;;4973897;28;20198;-68
2023/06/04 02:10:18;;;;;;;3.00;2.80;;;21.30;61.20;;;;;;4974037;28;20231;-68
2023/06/04 02:12:59;;;;;;;3.17;2.97;;;21.20;61.10;;;;;;4989726;28;20702;-68
2023/06/04 02:15:27;;;;;;;3.50;3.20;;;21.20;61.10;;;;;;4993328;28;20192;-68
2023/06/04 02:18:02;;;;;;;3.20;2.90;;;21.20;61.20;;;;;;4993112;28;20216;-67
2023/06/04 02:20:28;;;;;;;3.03;2.75;;;21.20;61.10;;;;;;4982306;28;20201;-68
2023/06/04 02:22:57;;;;;;;3.17;2.70;;;21.20;61.20;;;;;;4989455;28;20291;-68
2023/06/04 02:25:25;;;;;;;3.28;3.03;;;21.20;60.90;;;;;;4973761;28;20197;-68
2023/06/04 02:27:51;;;;;;;2.90;2.70;;;21.20;61.10;;;;;;4971722;28;20221;-68
2023/06/04 02:30:17;;;;;;;4.22;2.92;;;21.20;61.00;;;;;;4973497;28;20186;-68
2023/06/04 02:32:44;;;;;;;2.60;2.40;;;21.20;61.00;;;;;;4973683;28;20245;-68
2023/06/04 02:35:10;;;;;;;2.90;2.70;;;21.20;60.90;;;;;;4993625;28;20264;-68
2023/06/04 02:37:36;;;;;;;2.70;2.50;;;21.20;61.80;;;;;;4977342;28;20201;-68
2023/06/04 02:40:03;;;;;;;3.00;2.70;;;21.20;60.90;;;;;;4975786;28;20192;-68
2023/06/04 02:42:29;;;;;;;2.90;2.70;;;21.20;61.00;;;;;;4986439;28;20597;-68
2023/06/04 02:44:55;;;;;;;3.13;2.83;;;21.20;61.00;;;;;;4980811;28;20194;-67
2023/06/04 02:47:21;;;;;;;3.50;3.20;;;21.20;61.00;;;;;;4969467;28;20215;-68
2023/06/04 02:49:46;;;;;;;3.42;2.75;;;21.20;61.00;;;;;;4978573;28;20189;-68
2023/06/04 02:52:12;;;;;;;3.08;2.88;;;21.20;61.80;;;;;;4984600;28;20189;-70
2023/06/04 02:54:38;;;;;;;3.10;2.80;;;21.20;61.00;;;;;;4969400;28;20194;-68
2023/06/04 02:57:04;;;;;;;3.13;2.92;;;21.20;60.90;;;;;;4972866;28;20584;-67
2023/06/04 02:59:32;;;;;;;2.75;2.55;;;21.20;60.90;;;;;;4995672;28;20195;-67
2023/06/04 03:01:57;;;;;;;2.88;2.67;;;21.20;60.90;;;;;;4974491;28;20209;-67
2023/06/04 03:04:23;;;;;;;2.78;2.60;;;21.20;60.90;;;;;;4972610;28;20190;-68
2023/06/04 03:06:57;;;;;;;2.72;2.53;;;21.20;60.90;;;;;;4972872;28;20185;-68
2023/06/04 03:09:23;;;;;;;2.80;2.60;;;21.20;60.90;;;;;;4972584;28;20229;-68
2023/06/04 03:11:49;;;;;;;3.42;2.60;;;21.20;60.90;;;;;;4997710;28;20189;-68
2023/06/04 03:14:16;;;;;;;3.00;2.80;;;21.20;60.80;;;;;;4992429;28;20180;-68
2023/06/04 03:16:42;;;;;;;2.75;2.50;;;21.20;60.80;;;;;;4992329;28;20203;-68
2023/06/04 03:19:08;;;;;;;2.72;2.53;;;21.20;61.00;;;;;;4980645;28;20210;-68
2023/06/04 03:21:34;;;;;;;2.72;2.53;;;21.20;60.90;;;;;;4980433;28;20189;-68
2023/06/04 03:24:00;;;;;;;2.50;2.35;;;21.20;60.80;;;;;;4973746;28;20645;-68
2023/06/04 03:26:27;;;;;;;2.55;2.35;;;21.20;60.90;;;;;;4978017;28;20189;-68
2023/06/04 03:28:53;;;;;;;2.60;2.40;;;21.20;60.80;;;;;;4991731;28;20212;-68
2023/06/04 03:31:20;;;;;;;2.72;2.53;;;21.20;60.80;;;;;;4984188;28;20578;-69
2023/06/04 03:33:46;;;;;;;3.08;2.85;;;21.20;60.80;;;;;;4983632;28;20188;-68
2023/06/04 03:36:12;;;;;;;2.40;2.20;;;21.10;60.70;;;;;;4981712;28;20189;-68
2023/06/04 03:38:39;;;;;;;2.70;2.50;;;21.20;60.80;;;;;;4972299;28;20209;-68
2023/06/04 03:41:04;;;;;;;2.40;2.20;;;21.10;60.70;;;;;;4988548;28;20181;-69
2023/06/04 03:43:30;;;;;;;2.28;2.08;;;21.20;60.70;;;;;;4978540;28;20216;-68
2023/06/04 03:46:00;;;;;;;3.00;2.70;;;21.20;60.70;;;;;;4990254;28;20231;-68
2023/06/04 03:48:26;;;;;;;2.58;2.38;;;21.20;60.70;;;;;;5001886;28;20204;-68
2023/06/04 03:50:52;;;;;;;2.80;2.60;;;21.10;60.60;;;;;;4991045;28;20181;-67
2023/06/04 03:53:17;;;;;;;2.50;2.30;;;21.10;60.70;;;;;;4984732;28;20177;-67
2023/06/04 03:55:43;;;;;;;2.97;2.75;;;21.20;60.80;;;;;;4975820;28;20194;-67
2023/06/04 03:58:11;;;;;;;2.45;2.22;;;21.10;60.60;;;;;;4974489;28;20223;-68
2023/06/04 04:00:39;;;;;;;2.55;2.35;;;21.10;60.70;;;;;;4984638;28;20189;-68
2023/06/04 04:03:09;;;;;;;2.80;2.60;;;21.10;60.60;;;;;;4987928;28;20212;-68
2023/06/04 04:05:36;;;;;;;2.20;2.10;;;21.10;60.60;;;;;;4972383;28;20652;-68
2023/06/04 04:08:04;;;;;;;2.92;2.67;;;21.10;60.70;;;;;;4996070;28;20205;-68
2023/06/04 04:10:32;;;;;;;2.15;2.05;;;21.10;60.60;;;;;;4972132;28;20186;-68
2023/06/04 04:12:58;;;;;;;2.50;2.30;;;21.10;60.80;;;;;;4988438;28;20292;-68
2023/06/04 04:15:25;;;;;;;2.60;2.40;;;21.10;60.80;;;;;;4985666;28;20640;-68
2023/06/04 04:17:52;;;;;;;2.65;2.33;;;21.10;60.70;;;;;;4977598;28;20211;-68
2023/06/04 04:20:18;;;;;;;2.50;2.30;;;21.10;60.60;;;;;;4981339;28;20190;-68
2023/06/04 04:22:50;;;;;;;2.50;2.30;;;21.10;60.60;;;;;;4999882;28;20209;-68
2023/06/04 04:25:16;;;;;;;2.55;2.35;;;21.10;60.60;;;;;;4979564;28;20181;-68
2023/06/04 04:27:43;;;;;;;2.80;2.60;;;21.10;60.70;;;;;;4995206;28;20626;-68
2023/06/04 04:30:13;;;;;;;2.47;2.28;;;21.10;60.60;;;;;;4990721;28;20648;-68
2023/06/04 04:32:48;;;;;;;2.50;2.22;;;21.10;60.60;;;;;;4992067;28;20253;-68
2023/06/04 04:35:17;;;;;;;2.72;2.38;;;21.10;60.50;;;;;;4984089;28;20198;-68
2023/06/04 04:37:45;;;;;;;2.20;2.10;;;21.10;60.70;;;;;;4976517;28;20216;-66
2023/06/04 04:40:12;;;;;;;2.70;2.50;;;21.10;60.70;;;;;;4977989;28;20181;-67
2023/06/04 04:42:42;;;;;;;2.38;2.17;;;21.10;60.60;;;;;;4986793;28;20212;-68
2023/06/04 04:45:10;;;;;;;2.45;2.03;;;21.10;60.70;;;;;;4986633;28;20667;-68
2023/06/04 04:47:37;;;;;;;2.42;2.20;;;21.10;60.70;;;;;;4980229;28;20209;-68
2023/06/04 04:50:05;;;;;;;2.90;2.45;;;21.10;60.70;;;;;;4985079;28;20189;-68
2023/06/04 04:52:30;;;;;;;2.17;2.05;;;21.10;60.70;;;;;;4986959;28;20247;-68
2023/06/04 04:54:57;;;;;;;2.67;2.47;;;21.10;60.70;;;;;;4985932;28;20194;-68
2023/06/04 04:57:26;;;;;;;2.40;2.20;;;21.10;60.70;;;;;;4986385;28;20231;-68
2023/06/04 04:59:53;;;;;;;2.60;2.40;;;21.10;60.70;;;;;;4977681;28;20189;-68
2023/06/04 05:02:19;;;;;;;2.20;2.00;;;21.10;60.70;;;;;;4983045;28;20201;-68
2023/06/04 05:04:45;;;;;;;2.50;2.30;;;21.10;60.60;;;;;;4982950;28;20196;-68
2023/06/04 05:07:13;;;;;;;2.70;2.30;;;21.10;60.70;;;;;;4987712;28;20214;-67
2023/06/04 05:09:40;;;;;;;5.00;2.20;;;21.10;60.60;;;;;;4974602;28;20190;-68
2023/06/04 05:12:06;;;;;;;2.40;2.20;;;21.10;60.70;;;;;;4983675;28;20194;-67
2023/06/04 05:14:35;;;;;;;2.13;2.03;;;21.10;60.80;;;;;;4986216;28;20193;-67
2023/06/04 05:17:06;;;;;;;2.00;1.90;;;21.10;60.80;;;;;;4994082;28;20197;-68
2023/06/04 05:19:32;;;;;;;2.20;2.10;;;21.10;60.70;;;;;;4988896;28;20194;-68
2023/06/04 05:22:00;;;;;;;2.50;2.30;;;21.10;60.70;;;;;;4991685;28;20213;-68
2023/06/04 05:24:26;;;;;;;2.40;2.20;;;21.10;60.70;;;;;;4986209;28;20192;-69
2023/06/04 05:26:52;;;;;;;2.30;2.17;;;21.10;60.70;;;;;;4985727;28;20197;-68
2023/06/04 05:29:21;;;;;;;2.63;2.25;;;21.10;60.80;;;;;;4974253;28;20197;-68
2023/06/04 05:31:48;;;;;;;2.75;2.22;;;21.10;60.70;;;;;;4994022;28;20668;-68
2023/06/04 05:34:18;;;;;;;2.50;2.30;;;21.10;60.70;;;;;;4985753;28;20184;-68
2023/06/04 05:36:45;;;;;;;2.20;2.05;;;21.10;60.70;;;;;;4978860;28;20276;-68
2023/06/04 05:39:11;;;;;;;2.58;2.00;;;21.10;60.80;;;;;;4973803;28;20197;-68
2023/06/04 05:41:46;;;;;;;2.30;2.10;;;21.10;60.80;;;;;;4997537;28;20684;-68
2023/06/04 05:44:13;;;;;;;2.47;2.28;;;21.10;60.70;;;;;;4974941;28;20204;-69
2023/06/04 05:46:40;;;;;;;2.25;2.05;;;21.10;60.70;;;;;;4990575;28;20232;-68
2023/06/04 05:49:06;;;;;;;2.47;2.03;;;21.10;60.60;;;;;;4989965;28;20706;-68
2023/06/04 05:51:31;;;;;;;2.38;2.17;;;21.10;60.70;;;;;;4982437;28;20190;-68
2023/06/04 05:53:57;;;;;;;2.28;2.08;;;21.10;60.50;;;;;;4985445;28;20217;-69
2023/06/04 05:56:23;;;;;;;2.45;2.25;;;21.10;60.60;;;;;;4985502;28;20197;-68
2023/06/04 05:58:53;;;;;;;2.47;2.28;;;21.10;60.60;;;;;;4992468;28;20216;-68
2023/06/04 06:01:21;;;;;;;2.05;1.95;;;21.10;60.60;;;;;;4976919;28;20192;-68
2023/06/04 06:03:47;;;;;;;2.55;2.35;;;21.10;60.50;;;;;;4992387;28;20248;-68
2023/06/04 06:06:13;;;;;;;2.03;1.92;;;21.10;60.50;;;;;;4993460;28;20265;-68
2023/06/04 06:08:39;;;;;;;2.30;2.10;;;21.10;60.40;;;;;;4974226;28;20263;-68
2023/06/04 06:11:05;;;;;;;2.13;2.03;;;21.10;60.40;;;;;;4972697;28;20575;-68
2023/06/04 06:13:31;;;;;;;2.40;2.20;;;21.10;60.40;;;;;;4979385;28;20208;-67
2023/06/04 06:15:57;;;;;;;2.13;2.03;;;21.10;60.50;;;;;;4981391;28;20188;-68
2023/06/04 06:18:24;;;;;;;2.53;2.30;;;21.20;60.50;;;;;;4979950;28;20251;-67
2023/06/04 06:20:50;;;;;;;2.30;2.20;;;21.10;60.50;;;;;;4980814;28;20256;-68
2023/06/04 06:23:16;;;;;;;2.42;2.20;;;21.20;60.50;;;;;;4984046;28;20308;-68
2023/06/04 06:25:45;;;;;;;2.50;2.30;;;21.20;60.50;;;;;;4984519;28;20185;-68
2023/06/04 06:28:16;;;;;;;2.67;2.45;;;21.20;60.40;;;;;;4973045;28;20201;-67
2023/06/04 06:30:44;;;;;;;2.20;2.10;;;21.10;60.30;;;;;;4980691;28;20181;-68
2023/06/04 06:33:10;;;;;;;2.45;2.03;;;21.20;60.40;;;;;;4980937;28;20204;-68
2023/06/04 06:35:36;;;;;;;2.55;2.10;;;21.20;60.40;;;;;;4977976;28;20220;-68
2023/06/04 06:38:02;;;;;;;2.00;1.90;;;21.20;60.50;;;;;;4995082;28;20309;-68
2023/06/04 06:40:30;;;;;;;2.25;2.05;;;21.20;60.40;;;;;;4968304;28;20198;-67
2023/06/04 06:42:56;;;;;;;2.78;2.05;;;21.20;60.40;;;;;;4988834;28;20221;-68
2023/06/04 06:45:22;;;;;;;2.10;2.00;;;21.20;60.50;;;;;;4975950;28;20196;-67
2023/06/04 06:47:47;;;;;;;2.22;1.92;;;21.20;60.30;;;;;;4992820;28;20213;-67
2023/06/04 06:50:14;;;;;;;2.20;2.00;;;21.20;60.40;;;;;;4972914;28;20329;-68
2023/06/04 06:52:40;;;;;;;2.30;2.20;;;21.20;60.40;;;;;;4981601;28;20461;-68
2023/06/04 06:55:06;;;;;;;2.00;1.90;;;21.20;60.50;;;;;;4980350;28;20201;-69
2023/06/04 06:57:33;;;;;;;2.10;2.00;;;21.20;60.40;;;;;;4950534;28;1045226;-68
2023/06/04 06:59:59;;;;;;;2.35;2.15;;;21.20;60.50;;;;;;4980954;28;20194;-68
2023/06/04 07:02:25;;;;;;;2.50;2.28;;;21.20;60.40;;;;;;4992915;28;20235;-68
2023/06/04 07:04:51;;;;;;;1.90;1.80;;;21.20;60.40;;;;;;4984399;28;20331;-68
2023/06/04 07:07:17;;;;;;;2.50;2.20;;;21.20;60.40;;;;;;4976031;28;20300;-68
2023/06/04 07:09:42;;;;;;;1.85;1.75;;;21.20;60.40;;;;;;4978377;28;20194;-69
2023/06/04 07:12:08;;;;;;;2.42;2.22;;;21.20;60.40;;;;;;4980777;28;20598;-68
2023/06/04 07:14:34;;;;;;;2.08;1.98;;;21.20;60.40;;;;;;4990903;28;20193;-68
2023/06/04 07:17:00;;;;;;;2.85;2.60;;;21.20;60.50;;;;;;4988957;28;20658;-68
2023/06/04 07:19:26;;;;;;;2.20;2.05;;;21.20;60.50;;;;;;4989198;28;20209;-68
2023/06/04 07:21:55;;;;;;;1.98;1.88;;;21.20;60.40;;;;;;4984775;28;20212;-68
2023/06/04 07:24:21;;;;;;;2.42;2.22;;;21.20;60.40;;;;;;5008178;28;20195;-69
2023/06/04 07:26:48;;;;;;;2.40;2.20;;;21.20;60.40;;;;;;4983843;28;20189;-69
2023/06/04 07:29:14;;;;;;;2.22;2.03;;;21.20;60.40;;;;;;4983662;28;20189;-68
2023/06/04 07:31:41;;;;;;;2.85;2.10;;;21.20;60.20;;;;;;4986877;28;20276;-68
2023/06/04 07:34:06;;;;;;;2.38;2.17;;;21.30;60.40;;;;;;4978977;28;20232;-68
2023/06/04 07:36:32;;;;;;;2.38;2.17;;;21.30;60.30;;;;;;4987500;28;20213;-68
2023/06/04 07:38:59;;;;;;;2.40;2.20;;;21.30;60.40;;;;;;4980137;28;20277;-68
2023/06/04 07:41:28;;;;;;;2.10;2.00;;;21.30;60.40;;;;;;4965835;28;20194;-68
2023/06/04 07:43:54;;;;;;;2.42;2.22;;;21.30;60.40;;;;;;4972341;28;20260;-69
2023/06/04 07:46:19;;;;;;;2.05;1.95;;;21.30;60.50;;;;;;4986725;28;20215;-68
2023/06/04 07:48:45;;;;;;;2.45;2.28;;;21.30;60.50;;;;;;5008008;28;20219;-68
2023/06/04 07:51:13;;;;;;;1.92;1.83;;;21.30;60.50;;;;;;4989299;28;20185;-68
2023/06/04 07:53:39;;;;;;;2.40;2.20;;;21.30;60.40;;;;;;4988576;28;20208;-68
2023/06/04 07:56:06;;;;;;;2.30;2.10;;;21.30;60.40;;;;;;4980342;28;20188;-68
2023/06/04 07:58:32;;;;;;;2.75;2.40;;;21.40;60.60;;;;;;4991510;28;20647;-66
2023/06/04 08:00:57;;;;;;;3.40;2.25;;;21.40;60.60;;;;;;4983573;28;20192;-68
2023/06/04 08:03:24;;;;;;;3.40;2.30;;;21.30;60.50;;;;;;4983648;28;20212;-68
2023/06/04 08:05:50;;;;;;;2.30;2.10;;;21.40;60.60;;;;;;5001561;28;20190;-68
2023/06/04 08:08:16;;;;;;;2.47;2.28;;;21.40;61.50;;;;;;4984936;28;20220;-68
2023/06/04 08:10:42;;;;;;;2.15;2.05;;;21.30;60.50;;;;;;4973237;28;20273;-68
2023/06/04 08:13:11;;;;;;;2.33;2.20;;;21.40;60.70;;;;;;4990741;28;20196;-68
2023/06/04 08:15:37;;;;;;;2.10;2.00;;;21.40;60.60;;;;;;4996744;28;20197;-68
2023/06/04 08:18:03;;;;;;;2.40;2.25;;;21.40;60.60;;;;;;4972135;28;20213;-68
2023/06/04 08:20:28;;;;;;;2.60;2.40;;;21.40;60.50;;;;;;4991745;28;20192;-68
2023/06/04 08:22:54;;;;;;;2.63;2.42;;;21.40;60.60;;;;;;4968287;28;20201;-68
2023/06/04 08:25:20;;;;;;;2.70;2.03;;;21.40;60.60;;;;;;4971813;28;20189;-68
2023/06/04 08:27:46;;;;;;;3.00;2.70;;;21.40;60.60;;;;;;4993991;28;20209;-68
2023/06/04 08:30:11;;;;;;;2.45;2.25;;;21.40;60.70;;;;;;4973819;28;20264;-69
2023/06/04 08:32:37;;;;;;;2.42;2.22;;;21.40;60.60;;;;;;4979772;28;20190;-68
2023/06/04 08:35:04;;;;;;;2.80;2.60;;;21.40;60.60;;;;;;4979829;28;20193;-69
2023/06/04 08:37:30;;;;;;;2.50;2.30;;;21.40;60.60;;;;;;4986113;28;20217;-68
2023/06/04 08:39:56;;;;;;;2.88;2.67;;;21.50;60.70;;;;;;4975848;28;20197;-68
2023/06/04 08:42:34;;;;;;;2.20;2.10;;;21.50;60.70;;;;;;4982471;28;20224;-68
2023/06/04 08:45:01;;;;;;;3.20;2.30;;;21.50;60.70;;;;;;4992716;28;20224;-68
2023/06/04 08:47:29;;;;;;;2.33;2.13;;;21.50;60.70;;;;;;4996086;28;20258;-68
2023/06/04 08:50:00;;;;;;;2.47;2.28;;;21.50;60.70;;;;;;4988064;28;20185;-68
2023/06/04 08:52:26;;;;;;;2.80;2.60;;;21.50;60.70;;;;;;4971660;28;20197;-68
2023/06/04 08:54:54;;;;;;;2.22;2.03;;;21.50;60.70;;;;;;4983197;28;20193;-68
2023/06/04 08:57:21;;;;;;;2.47;2.28;;;21.50;60.80;;;;;;4982948;28;20256;-68
2023/06/04 08:59:47;;;;;;;3.17;2.30;;;21.50;60.60;;;;;;4985076;28;20217;-68
2023/06/04 09:02:14;;;;;;;3.00;2.60;;;21.50;60.70;;;;;;4987953;28;20214;-68
2023/06/04 09:04:42;;;;;;;2.55;2.35;;;21.60;60.80;;;;;;4994500;28;20220;-68
2023/06/04 09:07:11;;;;;;;2.53;2.33;;;21.50;61.50;;;;;;4987266;28;20216;-69
2023/06/04 09:09:43;;;;;;;2.83;2.50;;;21.60;61.10;;;;;;4990018;28;20244;-68
2023/06/04 09:12:16;;;;;;;2.33;2.13;;;21.60;61.00;;;;;;4993595;28;20213;-70
2023/06/04 09:14:42;;;;;;;2.45;2.25;;;21.60;61.00;;;;;;4989994;28;20201;-68
2023/06/04 09:17:08;;;;;;;2.70;2.33;;;21.60;61.00;;;;;;4983011;28;20209;-68
2023/06/04 09:19:34;;;;;;;3.13;2.83;;;21.60;61.10;;;;;;4983594;28;20182;-68
2023/06/04 09:22:03;;;;;;;3.10;2.42;;;21.60;61.10;;;;;;4958568;28;22191;-68
2023/06/04 09:24:42;;;;;;;3.10;2.90;;;21.60;61.00;;;;;;4999090;28;20189;-68
2023/06/04 09:27:14;;;;;;;2.92;2.70;;;21.60;61.20;;;;;;4994354;28;20215;-70
2023/06/04 09:29:54;;;;;;;2.53;2.33;;;21.60;61.20;;;;;;5010597;28;20675;-68
2023/06/04 09:32:29;;;;;;;2.05;1.95;;;21.60;61.10;;;;;;4994276;28;20699;-68
2023/06/04 09:35:13;;;;;;;2.50;2.30;;;21.60;61.10;;;;;;4976237;28;20281;-67
2023/06/04 09:37:41;;;;;;;2.78;2.58;;;21.60;61.00;;;;;;4981451;28;20220;-68
2023/06/04 09:40:08;;;;;;;2.70;2.50;;;21.60;61.10;;;;;;5002164;28;20261;-72
2023/06/04 09:42:45;;;;;;;2.88;2.58;;;21.60;61.10;;;;;;4990829;28;20301;-68
2023/06/04 09:45:12;;;;;;;2.85;2.60;;;21.60;61.00;;;;;;5006484;28;20188;-68
2023/06/04 09:47:42;;;;;;;2.50;2.30;;;21.60;61.20;;;;;;4991092;28;20210;-68
2023/06/04 09:50:10;;;;;;;2.95;2.75;;;21.60;61.20;;;;;;4983478;28;20213;-67
2023/06/04 09:52:37;;;;;;;2.75;2.55;;;21.60;61.30;;;;;;4993691;28;20196;-68
2023/06/04 09:55:03;;;;;;;2.90;2.60;;;21.60;61.30;;;;;;4978138;28;20300;-69
2023/06/04 09:57:31;;;;;;;2.60;2.40;;;21.60;61.30;;;;;;4982128;28;20751;-70
2023/06/04 09:59:59;;;;;;;3.70;3.03;;;21.60;61.30;;;;;;4987186;28;20228;-69
2023/06/04 10:02:29;;;;;;;3.13;2.83;;;21.60;61.30;;;;;;5000642;28;20597;-69
2023/06/04 10:04:58;;;;;;;3.15;2.42;;;21.60;61.30;;;;;;4993561;28;20284;-66
2023/06/04 10:07:26;;;;;;;2.83;2.63;;;21.60;61.30;;;;;;4984046;28;20634;-69
2023/06/04 10:09:52;;;;;;;2.80;2.60;;;21.60;61.30;;;;;;4987394;28;20194;-69
2023/06/04 10:12:28;;;;;;;2.95;2.75;;;21.60;61.20;;;;;;4975109;28;20194;-68
2023/06/04 10:15:01;;;;;;;2.80;2.60;;;21.60;61.10;;;;;;4984803;28;20193;-68
2023/06/04 10:17:29;;;;;;;2.50;2.30;;;21.60;61.10;;;;;;4985373;28;20222;-68
2023/06/04 10:19:58;;;;;;;2.85;2.65;;;21.60;61.10;;;;;;4993186;28;20243;-68
2023/06/04 10:22:24;;;;;;;2.90;2.70;;;21.60;61.10;;;;;;4976940;28;20213;-68
2023/06/04 10:24:50;;;;;;;2.95;2.72;;;21.70;61.20;;;;;;4985157;28;20226;-66
2023/06/04 10:27:20;;;;;;;3.72;2.97;;;21.60;61.30;;;;;;4985328;28;20205;-69
2023/06/04 10:29:46;;;;;;;2.80;2.50;;;21.70;61.20;;;;;;4981523;28;20186;-68
2023/06/04 10:32:12;;;;;;;4.18;2.65;;;21.70;61.30;;;;;;4990406;28;20202;-68
2023/06/04 10:34:38;;;;;;;6.45;3.05;;;21.70;61.20;;;;;;4993341;28;20193;-68
2023/06/04 10:37:04;;;;;;;3.40;3.10;;;21.70;61.20;;;;;;4972462;28;20186;-68
2023/06/04 10:39:32;;;;;;;2.92;2.67;;;21.70;61.30;;;;;;4980172;28;20292;-69
2023/06/04 10:42:05;;;;;;;2.90;2.70;;;21.60;62.00;;;;;;4973836;28;20194;-68
2023/06/04 10:44:44;;;;;;;2.88;2.67;;;21.60;61.30;;;;;;4984645;28;20211;-71
2023/06/04 10:47:25;;;;;;;3.33;3.03;;;21.70;61.30;;;;;;4981053;28;20206;-68
2023/06/04 10:49:52;;;;;;;3.03;2.72;;;21.70;61.10;;;;;;4972577;28;20264;-68
2023/06/04 10:52:19;;;;;;;2.63;2.42;;;21.70;61.10;;;;;;4983624;28;20188;-68
2023/06/04 10:54:48;;;;;;;3.20;2.90;;;21.70;60.90;;;;;;4997791;28;20212;-68
2023/06/04 10:57:18;;;;;;;2.92;2.50;;;21.70;61.10;;;;;;4989786;28;20221;-67
2023/06/04 11:00:05;;;;;;;2.90;2.70;;;21.70;61.20;;;;;;4993659;28;20271;-68
2023/06/04 11:02:31;;;;;;;3.83;2.90;;;21.70;61.10;;;;;;4992239;28;20274;-68
2023/06/04 11:05:05;;;;;;;2.92;2.63;;;21.60;61.10;;;;;;4992490;28;20299;-68
2023/06/04 11:07:46;;;;;;;3.03;2.70;;;21.70;61.20;;;;;;4974713;28;20264;-68
2023/06/04 11:10:17;;;;;;;3.33;3.03;;;21.70;61.20;;;;;;4997184;28;20223;-68
2023/06/04 11:12:47;;;;;;;3.20;2.90;;;21.70;61.20;;;;;;4997272;28;20200;-67
2023/06/04 11:15:14;;;;;;;3.25;2.97;;;21.70;61.10;;;;;;4974335;28;20661;-66
2023/06/04 11:17:54;;;;;;;3.22;2.95;;;21.70;61.10;;;;;;4988865;28;20205;-68
2023/06/04 11:20:22;;;;;;;2.78;2.58;;;21.70;61.10;;;;;;4991007;28;20191;-68
2023/06/04 11:23:06;;;;;;;3.63;2.80;;;21.70;60.90;;;;;;4985309;28;20205;-68
2023/06/04 11:25:33;;;;;;;2.80;2.60;;;21.70;61.10;;;;;;4992117;28;20200;-68
2023/06/04 11:28:01;;;;;;;3.30;3.00;;;21.70;61.10;;;;;;4983866;28;20220;-67
2023/06/04 11:30:27;;;;;;;3.95;3.33;;;21.70;61.20;;;;;;4983993;28;20208;-69
2023/06/04 11:33:05;;;;;;;3.35;2.97;;;21.70;61.20;;;;;;4992239;28;20177;-68
2023/06/04 11:35:39;;;;;;;3.97;3.20;;;21.70;61.10;;;;;;4991430;28;20707;-68
2023/06/04 11:38:05;;;;;;;3.70;3.40;;;21.70;61.10;;;;;;4977617;28;20614;-67
2023/06/04 11:40:31;;;;;;;3.60;3.30;;;21.70;61.20;;;;;;4959414;28;20252;-67
2023/06/04 11:42:57;;;;;;;3.05;2.85;;;21.70;61.00;;;;;;4978938;28;20264;-68
2023/06/04 11:45:25;;;;;;;3.63;3.33;;;21.70;61.00;;;;;;4988404;28;20199;-66
2023/06/04 11:47:56;;;;;;;2.97;2.78;;;21.70;60.70;;;;;;4973585;28;20259;-68
2023/06/04 11:50:26;;;;;;;3.03;2.83;;;21.70;60.90;;;;;;4989291;28;20205;-67
2023/06/04 11:52:53;;;;;;;3.33;3.03;;;21.70;60.70;;;;;;4972848;28;20243;-68
2023/06/04 11:55:23;;;;;;;3.53;3.10;;;21.70;60.80;;;;;;4972485;28;20193;-68
2023/06/04 11:57:50;;;;;;;3.38;3.10;;;21.70;60.80;;;;;;4984800;28;20231;-68
2023/06/04 12:00:18;;;;;;;4.53;2.92;;;21.70;60.70;;;;;;4983108;28;20185;-68
2023/06/04 12:02:56;;;;;;;3.95;3.28;;;21.70;61.50;;;;;;4987604;28;20248;-68
2023/06/04 12:05:32;;;;;;;3.60;3.30;;;21.70;60.60;;;;;;4980309;28;20193;-68
2023/06/04 12:08:10;;;;;;;3.20;3.00;;;21.80;60.90;;;;;;4976984;28;20236;-68
2023/06/04 12:10:42;;;;;;;3.80;3.42;;;21.80;61.00;;;;;;4974520;28;20213;-68
2023/06/04 12:13:09;;;;;;;3.97;3.67;;;21.70;60.80;;;;;;4988508;28;20208;-68
2023/06/04 12:15:35;;;;;;;3.22;3.03;;;21.80;60.90;;;;;;4980178;28;20220;-70
2023/06/04 12:18:04;;;;;;;3.70;3.40;;;21.80;61.00;;;;;;4988405;28;20214;-68
2023/06/04 12:20:41;;;;;;;4.40;3.55;;;21.80;61.00;;;;;;4989886;28;20249;-68
2023/06/04 12:23:07;;;;;;;3.50;3.20;;;21.70;60.80;;;;;;4991524;28;20240;-68
2023/06/04 12:25:35;;;;;;;3.83;3.10;;;21.70;60.70;;;;;;4986165;28;20227;-68
2023/06/04 12:28:02;;;;;;;3.28;2.97;;;21.70;60.50;;;;;;4975460;28;20206;-67
2023/06/04 12:30:39;;;;;;;3.50;3.20;;;21.70;60.70;;;;;;4988229;28;20194;-66
2023/06/04 12:33:05;;;;;;;4.00;3.60;;;21.80;60.70;;;;;;4978444;28;20247;-68
2023/06/04 12:35:31;;;;;;;3.60;3.30;;;21.80;60.70;;;;;;4972796;28;20193;-68
2023/06/04 12:37:57;;;;;;;4.18;3.72;;;21.80;61.00;;;;;;4989302;28;20245;-68
2023/06/04 12:40:23;;;;;;;3.80;3.40;;;21.70;60.50;;;;;;4984034;28;20252;-68
2023/06/04 12:42:52;;;;;;;4.80;3.50;;;21.80;60.60;;;;;;4986007;28;20214;-69
2023/06/04 12:45:18;;;;;;;3.83;3.53;;;21.80;61.00;;;;;;4988978;28;20193;-67
2023/06/04 12:47:44;;;;;;;4.10;3.63;;;21.70;60.80;;;;;;4971429;28;20207;-67
2023/06/04 12:50:10;;;;;;;3.75;3.45;;;21.80;61.00;;;;;;4988112;28;20277;-68
2023/06/04 12:52:36;;;;;;;3.90;3.60;;;21.80;60.90;;;;;;4985591;28;20251;-67